createdAt,value
2019-04-21T00:01:24.336Z,98334.78
2019-04-21T00:06:49.207Z,98334.11
2019-04-21T00:11:55.295Z,98330.41
2019-04-21T00:16:44.319Z,98324.56
2019-04-21T00:21:49.221Z,98321.54
2019-04-21T00:27:06.926Z,98325.02
2019-04-21T00:32:05.582Z,98312.29
2019-04-21T00:37:09.434Z,98307.41
2019-04-21T00:42:22.754Z,98305.69
2019-04-21T00:47:30.333Z,98304.11
2019-04-21T00:52:51.267Z,98303.23
2019-04-21T00:57:53.426Z,98319.06
2019-04-21T01:07:54.633Z,98321.63
2019-04-21T01:13:02.982Z,98315.09
2019-04-21T01:18:04.722Z,98316.80
2019-04-21T01:22:49.816Z,98319.59
2019-04-21T01:28:10.054Z,98319.03
2019-04-21T01:33:21.991Z,98306.50
2019-04-21T01:38:32.759Z,98293.32
2019-04-21T01:43:28.128Z,98290.20
2019-04-21T01:48:32.017Z,98279.33
2019-04-21T01:53:44.793Z,98285.69
2019-04-21T01:58:40.545Z,98281.83
2019-04-21T02:04:09.456Z,98276.38
2019-04-21T02:09:02.154Z,98277.35
2019-04-21T02:14:23.002Z,98266.61
2019-04-21T02:19:08.371Z,98266.51
2019-04-21T02:24:23.541Z,98263.41
2019-04-21T02:29:23.006Z,98254.66
2019-04-21T02:34:46.447Z,98250.25
2019-04-21T02:39:49.018Z,98249.05
2019-04-21T02:45:01.445Z,98250.34
2019-04-21T02:50:00.377Z,98242.15
2019-04-21T02:55:03.271Z,98233.75
2019-04-21T03:00:06.864Z,98232.05
2019-04-21T03:05:46.840Z,98217.58
2019-04-21T03:20:44.446Z,98226.56
2019-04-21T03:26:00.882Z,98226.60
2019-04-21T03:31:19.671Z,98219.20
2019-04-21T03:36:33.421Z,98228.15
2019-04-21T03:41:22.158Z,98219.25
2019-04-21T03:46:16.506Z,98224.58
2019-04-21T03:51:20.979Z,98217.14
2019-04-21T03:56:42.381Z,98217.63
2019-04-21T04:01:48.930Z,98217.65
2019-04-21T04:07:06.096Z,98216.84
2019-04-21T04:22:15.324Z,98224.98
2019-04-21T04:32:23.638Z,98227.42
2019-04-21T04:47:36.991Z,98228.50
2019-04-21T04:52:38.397Z,98231.89
2019-04-21T04:57:55.322Z,98236.56
2019-04-21T05:02:48.471Z,98232.63
2019-04-21T05:07:58.006Z,98235.67
2019-04-21T05:12:58.770Z,98245.42
2019-04-21T05:18:10.871Z,98241.70
2019-04-21T05:23:08.926Z,98245.20
2019-04-21T05:28:01.022Z,98239.09
2019-04-21T05:33:34.567Z,98243.78
2019-04-21T05:38:33.098Z,98234.38
2019-04-21T05:43:39.163Z,98237.12
2019-04-21T05:49:02.879Z,98235.25
2019-04-21T05:54:17.072Z,98235.19
2019-04-21T05:59:13.523Z,98229.63
2019-04-21T06:04:45.285Z,98229.02
2019-04-21T06:09:32.282Z,98232.57
2019-04-21T06:14:37.277Z,98232.67
2019-04-21T06:19:44.802Z,98223.45
2019-04-21T06:25:16.195Z,98228.48
2019-04-21T06:29:57.545Z,98219.88
2019-04-21T06:40:15.132Z,98212.45
2019-04-21T06:45:31.301Z,98205.03
2019-04-21T06:50:14.564Z,98199.96
2019-04-21T06:55:19.914Z,98194.52
2019-04-21T07:00:23.052Z,98191.14
2019-04-21T07:05:33.518Z,98191.45
2019-04-21T07:10:35.090Z,98182.27
2019-04-21T07:15:43.539Z,98174.02
2019-04-21T07:20:47.775Z,98176.49
2019-04-21T07:25:53.146Z,98167.31
2019-04-21T07:31:00.729Z,98161.59
2019-04-21T07:35:57.836Z,98155.64
2019-04-21T07:40:58.756Z,98151.02
2019-04-21T07:46:04.252Z,98151.32
2019-04-21T07:51:33.982Z,98147.38
2019-04-21T07:56:20.264Z,98148.70
2019-04-21T08:01:45.453Z,98140.84
2019-04-21T08:06:47.159Z,98125.37
2019-04-21T08:11:48.782Z,98111.91
2019-04-21T08:16:57.744Z,98112.91
2019-04-21T08:22:09.639Z,98109.34
2019-04-21T08:27:13.326Z,98104.45
2019-04-21T08:32:19.881Z,98106.99
2019-04-21T08:37:18.552Z,98108.30
2019-04-21T08:42:26.929Z,98108.53
2019-04-21T08:47:25.635Z,98098.28
2019-04-21T08:57:53.792Z,98088.91
2019-04-21T09:02:56.115Z,98080.22
2019-04-21T09:08:00.403Z,98071.52
2019-04-21T09:12:59.673Z,98066.02
2019-04-21T09:18:05.400Z,98065.41
2019-04-21T09:23:15.945Z,98053.83
2019-04-21T09:28:11.181Z,98047.58
2019-04-21T09:33:05.551Z,98044.31
2019-04-21T09:38:19.387Z,98035.61
2019-04-21T09:43:25.657Z,98032.69
2019-04-21T09:48:22.168Z,98025.41
2019-04-21T09:53:31.234Z,98017.82
2019-04-21T09:58:32.818Z,98005.33
2019-04-21T10:03:42.760Z,98000.07
2019-04-21T10:08:39.521Z,98000.96
2019-04-21T10:13:44.242Z,97993.58
2019-04-21T10:18:48.177Z,97993.31
2019-04-21T10:23:52.253Z,97992.11
2019-04-21T10:29:04.316Z,97982.88
2019-04-21T10:34:01.045Z,97979.95
2019-04-21T10:39:06.053Z,97967.65
2019-04-21T10:44:09.445Z,97964.94
2019-04-21T10:49:12.912Z,97958.30
2019-04-21T10:54:16.243Z,97949.15
2019-04-21T10:59:20.487Z,97933.60
2019-04-21T11:04:31.357Z,97933.60
2019-04-21T11:09:31.881Z,97927.75
2019-04-21T11:14:35.655Z,97914.02
2019-04-21T11:19:39.085Z,97913.33
2019-04-21T11:24:42.986Z,97904.77
2019-04-21T11:29:47.441Z,97898.75
2019-04-21T11:34:51.515Z,97900.24
2019-04-21T11:40:00.147Z,97898.16
2019-04-21T11:45:00.728Z,97893.23
2019-04-21T11:50:05.707Z,97885.41
2019-04-21T11:55:09.116Z,97889.96
2019-04-21T12:00:13.642Z,97888.58
2019-04-21T12:05:17.321Z,97876.09
2019-04-21T12:10:21.629Z,97870.56
2019-04-21T12:15:25.130Z,97864.30
2019-04-21T12:20:28.725Z,97858.33
2019-04-21T12:25:47.268Z,97857.89
2019-04-21T12:30:53.658Z,97854.02
2019-04-21T12:35:57.822Z,97843.59
2019-04-21T12:41:02.408Z,97826.80
2019-04-21T12:46:05.848Z,97822.77
2019-04-21T12:51:10.108Z,97821.69
2019-04-21T12:56:13.865Z,97816.53
2019-04-21T13:01:17.313Z,97800.26
2019-04-21T13:06:21.396Z,97796.84
2019-04-21T13:11:25.518Z,97792.66
2019-04-21T13:16:29.485Z,97775.69
2019-04-21T13:21:34.217Z,97776.36
2019-04-21T13:26:45.485Z,97756.77
2019-04-21T13:31:42.705Z,97753.97
2019-04-21T13:36:47.730Z,97753.37
2019-04-21T13:42:02.925Z,97747.61
2019-04-21T13:46:58.745Z,97740.11
2019-04-21T13:52:02.692Z,97729.39
2019-04-21T13:57:06.107Z,97725.38
2019-04-21T14:02:11.206Z,97705.70
2019-04-21T14:07:14.685Z,97700.34
2019-04-21T14:12:19.217Z,97695.04
2019-04-21T14:17:22.730Z,97689.15
2019-04-21T14:22:26.567Z,97686.47
2019-04-21T14:27:30.165Z,97679.44
2019-04-21T14:32:33.840Z,97676.89
2019-04-21T14:37:38.376Z,97669.80
2019-04-21T14:42:42.297Z,97662.30
2019-04-21T14:47:48.272Z,97659.39
2019-04-21T14:53:09.924Z,97648.80
2019-04-21T14:58:13.332Z,97646.28
2019-04-21T15:03:23.905Z,97645.14
2019-04-21T15:08:28.721Z,97638.70
2019-04-21T15:13:32.528Z,97638.71
2019-04-21T15:18:36.827Z,97632.76
2019-04-21T15:23:40.382Z,97625.83
2019-04-21T15:28:44.551Z,97622.29
2019-04-21T15:33:49.476Z,97617.45
2019-04-21T15:38:54.096Z,97608.94
2019-04-21T15:43:59.690Z,97613.38
2019-04-21T15:49:02.819Z,97608.09
2019-04-21T15:54:06.798Z,97595.98
2019-04-21T15:59:12.614Z,97597.88
2019-04-21T16:04:16.846Z,97586.72
2019-04-21T16:09:23.296Z,97587.91
2019-04-21T16:14:26.906Z,97577.78
2019-04-21T16:19:31.233Z,97580.98
2019-04-21T16:24:35.631Z,97573.31
2019-04-21T16:29:39.529Z,97571.23
2019-04-21T16:34:50.160Z,97568.69
2019-04-21T16:39:49.419Z,97556.77
2019-04-21T16:44:52.832Z,97561.37
2019-04-21T16:49:56.203Z,97568.53
2019-04-21T16:55:04.639Z,97556.50
2019-04-21T17:05:18.387Z,97552.02
2019-04-21T17:10:22.432Z,97545.43
2019-04-21T17:15:46.124Z,97551.28
2019-04-21T17:20:43.069Z,97544.78
2019-04-21T17:25:37.050Z,97544.03
2019-04-21T17:30:40.517Z,97542.03
2019-04-21T17:35:44.912Z,97538.92
2019-04-21T17:40:49.513Z,97543.05
2019-04-21T17:45:53.367Z,97533.59
2019-04-21T17:51:01.294Z,97538.30
2019-04-21T17:56:31.540Z,97540.48
2019-04-21T18:01:35.307Z,97539.53
2019-04-21T18:06:47.985Z,97547.66
2019-04-21T18:11:56.831Z,97545.64
2019-04-21T18:16:41.587Z,97549.98
2019-04-21T18:21:56.080Z,97543.89
2019-04-21T18:27:00.081Z,97546.39
2019-04-21T18:32:01.104Z,97546.73
2019-04-21T18:37:32.604Z,97548.80
2019-04-21T18:43:15.291Z,97547.20
2019-04-21T18:48:02.368Z,97543.77
2019-04-21T18:53:08.974Z,97552.41
2019-04-21T18:58:03.193Z,97553.09
2019-04-21T19:03:09.908Z,97559.93
2019-04-21T19:08:25.853Z,97565.16
2019-04-21T19:13:53.651Z,97567.22
2019-04-21T19:18:47.099Z,97574.16
2019-04-21T19:23:57.378Z,97571.64
2019-04-21T19:29:06.264Z,97575.09
2019-04-21T19:33:51.618Z,97578.08
2019-04-21T19:38:58.277Z,97581.64
2019-04-21T19:44:10.877Z,97581.22
2019-04-21T19:49:24.153Z,97583.97
2019-04-21T19:54:13.331Z,97582.85
2019-04-21T19:59:14.031Z,97576.75
2019-04-21T20:04:12.554Z,97577.97
2019-04-21T20:09:32.197Z,97579.98
2019-04-21T20:19:26.699Z,97573.89
2019-04-21T20:24:34.003Z,97573.89
2019-04-21T20:29:57.629Z,97570.89
2019-04-21T20:35:01.497Z,97573.53
2019-04-21T20:39:53.928Z,97569.25
2019-04-21T20:45:22.086Z,97558.02
2019-04-21T20:50:11.377Z,97566.30
2019-04-21T20:55:15.574Z,97560.66
2019-04-21T21:00:32.412Z,97554.69
2019-04-21T21:05:27.360Z,97558.67
2019-04-21T21:10:38.605Z,97567.72
2019-04-21T21:16:01.142Z,97562.16
2019-04-21T21:20:49.684Z,97561.51
2019-04-21T21:25:54.468Z,97561.16
2019-04-21T21:31:02.716Z,97551.98
2019-04-21T21:36:06.670Z,97554.96
2019-04-21T21:41:03.315Z,97548.50
2019-04-21T21:46:01.573Z,97549.29
2019-04-21T21:51:10.081Z,97543.28
2019-04-21T21:56:08.995Z,97543.23
2019-04-21T22:01:15.351Z,97550.27
2019-04-21T22:06:23.118Z,97552.23
2019-04-21T22:11:24.335Z,97537.17
2019-04-21T22:16:39.006Z,97542.33
2019-04-21T22:21:53.795Z,97536.23
2019-04-21T22:26:39.046Z,97529.41
2019-04-21T22:31:44.398Z,97540.84
2019-04-21T22:36:58.952Z,97542.14
2019-04-21T22:42:01.734Z,97533.97
2019-04-21T22:47:07.517Z,97532.71
2019-04-21T22:52:11.318Z,97532.52
2019-04-21T22:57:14.838Z,97532.44
2019-04-21T23:02:20.440Z,97522.61
2019-04-21T23:07:22.151Z,97511.52
2019-04-21T23:12:28.223Z,97514.77
2019-04-21T23:17:50.740Z,97511.01
2019-04-21T23:23:00.912Z,97508.63
2019-04-21T23:27:57.402Z,97500.31
2019-04-21T23:32:52.658Z,97498.30
2019-04-21T23:37:55.624Z,97499.86
2019-04-21T23:42:55.139Z,97498.44
2019-04-21T23:48:14.604Z,97503.13
2019-04-21T23:53:03.713Z,97497.02
2019-04-21T23:58:13.379Z,97496.69
